Time;durP1;ratioP1;P1;durP2;ratioP2;P2;SDS_P1;SDS_P2;PMS_P1;PMS_P2;Temp;Humidity;BMP_temperature;BMP_pressure;BME280_temperature;BME280_humidity;BME280_pressure;Samples;Min_cycle;Max_cycle;Signal;HPM_P1;HPM_P2
2023/07/28 00:01:41;;;;;;;5.07;3.10;;;;;;;17.45;100.00;99968.44;4993618;28;20054;-79
2023/07/28 00:04:10;;;;;;;4.68;3.38;;;;;;;17.42;100.00;99967.03;4998973;28;20101;-78
2023/07/28 00:06:37;;;;;;;3.42;2.72;;;;;;;17.44;100.00;99969.47;4992674;28;20054;-78
2023/07/28 00:09:03;;;;;;;4.65;3.10;;;;;;;17.45;100.00;99963.94;4992989;28;20058;-78
2023/07/28 00:11:30;;;;;;;5.30;3.00;;;;;;;17.46;100.00;99967.41;4995840;28;20088;-79
2023/07/28 00:13:58;;;;;;;5.60;3.50;;;;;;;17.45;100.00;99966.59;4992584;28;20128;-78
2023/07/28 00:16:26;;;;;;;4.40;3.10;;;;;;;17.44;100.00;99964.97;4997241;28;20125;-79
2023/07/28 00:18:53;;;;;;;5.88;3.10;;;;;;;17.41;100.00;99957.47;4994103;28;20085;-79
2023/07/28 00:21:19;;;;;;;4.65;3.35;;;;;;;17.46;100.00;99962.94;4995030;28;20126;-78
2023/07/28 00:23:46;;;;;;;3.75;3.05;;;;;;;17.45;100.00;99961.31;5002791;28;20505;-79
2023/07/28 00:26:13;;;;;;;3.05;2.80;;;;;;;17.47;100.00;99961.91;5000759;28;20061;-78
2023/07/28 00:28:39;;;;;;;2.75;2.45;;;;;;;17.46;100.00;99962.94;4995478;28;20129;-80
2023/07/28 00:31:06;;;;;;;4.47;2.75;;;;;;;17.54;100.00;99965.28;4997581;28;20054;-78
2023/07/28 00:33:34;;;;;;;3.65;2.85;;;;;;;17.52;100.00;99967.31;4992548;28;20483;-78
2023/07/28 00:36:00;;;;;;;9.90;3.20;;;;;;;17.53;100.00;99963.66;4992868;28;20046;-76
2023/07/28 00:38:27;;;;;;;4.10;2.88;;;;;;;17.50;100.00;99958.78;4993308;28;20050;-77
2023/07/28 00:40:54;;;;;;;7.05;2.67;;;;;;;17.50;100.00;99966.72;4999612;28;20046;-80
2023/07/28 00:43:20;;;;;;;4.13;2.42;;;;;;;17.47;100.00;99956.63;4993575;28;20141;-79
2023/07/28 00:45:47;;;;;;;3.35;2.70;;;;;;;17.50;100.00;99958.78;4998411;28;20558;-79
2023/07/28 00:48:15;;;;;;;4.80;3.60;;;;;;;17.52;100.00;99956.75;4997081;28;20133;-79
2023/07/28 00:50:46;;;;;;;6.50;2.60;;;;;;;17.50;100.00;99950.84;4998021;28;20057;-79
2023/07/28 00:53:12;;;;;;;3.75;2.42;;;;;;;17.53;100.00;99947.78;4998303;28;20046;-80
2023/07/28 00:55:40;;;;;;;5.13;3.20;;;;;;;17.59;100.00;99957.50;5002178;28;20506;-77
2023/07/28 00:58:06;;;;;;;5.57;2.70;;;;;;;17.57;100.00;99954.25;4999091;28;20142;-78
2023/07/28 01:00:33;;;;;;;5.70;2.70;;;;;;;17.58;100.00;99966.47;5002064;28;20125;-80
2023/07/28 01:03:00;;;;;;;5.30;2.88;;;;;;;17.59;100.00;99965.44;5002507;28;20129;-77
2023/07/28 01:05:33;;;;;;;4.60;2.95;;;;;;;17.54;100.00;99964.47;5001390;28;20479;-78
2023/07/28 01:08:07;;;;;;;3.65;2.90;;;;;;;17.53;100.00;99961.00;5001185;28;20453;-80
2023/07/28 01:10:34;;;;;;;6.18;2.88;;;;;;;17.49;100.00;99951.88;5003725;28;20485;-79
2023/07/28 01:13:00;;;;;;;3.60;2.80;;;;;;;17.45;100.00;99950.72;5008694;28;20054;-80
2023/07/28 01:15:27;;;;;;;3.17;2.78;;;;;;;17.52;100.00;99951.44;5002354;28;20113;-78
2023/07/28 01:17:54;;;;;;;5.97;3.08;;;;;;;17.56;100.00;99952.63;5000524;28;20413;-79
2023/07/28 01:20:23;;;;;;;4.50;2.67;;;;;;;17.57;100.00;99950.81;4998445;28;20125;-79
2023/07/28 01:23:05;;;;;;;3.40;2.72;;;;;;;17.63;100.00;99954.41;5006829;28;20050;-80
2023/07/28 01:25:44;;;;;;;4.97;2.92;;;;;;;17.56;100.00;99947.34;5000537;28;20050;-80
2023/07/28 01:28:14;;;;;;;3.97;2.50;;;;;;;17.57;100.00;99948.97;4996966;28;20078;-79
2023/07/28 01:30:41;;;;;;;4.82;3.10;;;;;;;17.55;100.00;99948.38;5005255;28;20477;-79
2023/07/28 01:33:08;;;;;;;7.07;2.95;;;;;;;17.54;100.00;99952.03;4993211;28;20078;-79
2023/07/28 01:35:37;;;;;;;4.88;2.85;;;;;;;17.54;100.00;99951.22;5001752;28;20079;-80
2023/07/28 01:38:03;;;;;;;4.47;2.70;;;;;;;17.52;100.00;99946.16;4999892;28;20077;-79
2023/07/28 01:40:30;;;;;;;9.32;3.10;;;;;;;17.52;100.00;99950.63;5003426;28;20484;-80
2023/07/28 01:42:57;;;;;;;6.38;2.60;;;;;;;17.51;100.00;99944.53;5008254;28;20051;-81
2023/07/28 01:45:25;;;;;;;7.53;2.60;;;;;;;17.59;100.00;99954.03;4999882;28;20058;-77
2023/07/28 01:47:51;;;;;;;4.75;2.80;;;;;;;17.52;100.00;99951.44;5001694;28;20081;-80
2023/07/28 01:50:18;;;;;;;5.25;3.13;;;;;;;17.51;100.00;99944.53;5001426;28;20085;-79
2023/07/28 01:52:45;;;;;;;3.17;2.38;;;;;;;17.47;100.00;99942.56;4997363;28;20465;-78
2023/07/28 01:55:11;;;;;;;4.07;2.75;;;;;;;17.46;100.00;99939.13;4996209;28;20050;-78
2023/07/28 01:57:40;;;;;;;3.72;2.45;;;;;;;17.45;100.00;99934.88;5002454;28;20223;-79
2023/07/28 02:00:07;;;;;;;3.47;2.63;;;;;;;17.48;100.00;99938.91;4996469;28;20491;-75
2023/07/28 02:02:35;;;;;;;4.22;2.60;;;;;;;17.42;100.00;99935.28;4991808;28;20054;-78
2023/07/28 02:05:02;;;;;;;3.50;2.80;;;;;;;17.44;100.00;99938.53;4995801;28;20113;-79
2023/07/28 02:07:29;;;;;;;5.90;2.90;;;;;;;17.44;100.00;99930.59;5000597;28;20113;-76
2023/07/28 02:09:56;;;;;;;4.05;2.63;;;;;;;17.41;100.00;99943.44;4995266;28;20053;-78
2023/07/28 02:12:22;;;;;;;3.65;2.72;;;;;;;17.41;100.00;99938.16;4998736;28;20133;-77
2023/07/28 02:14:49;;;;;;;4.43;2.75;;;;;;;17.39;100.00;99941.00;4999238;28;20203;-78
2023/07/28 02:17:15;;;;;;;5.50;3.55;;;;;;;17.33;100.00;99935.78;4999394;28;20056;-78
2023/07/28 02:19:43;;;;;;;3.63;3.13;;;;;;;17.34;100.00;99943.50;4999245;28;20086;-80
2023/07/28 02:22:11;;;;;;;4.65;3.30;;;;;;;17.33;100.00;99941.88;4997244;28;20534;-79
2023/07/28 02:24:37;;;;;;;4.68;3.50;;;;;;;17.33;100.00;99933.94;4998982;28;20054;-79
2023/07/28 02:27:04;;;;;;;6.63;3.80;;;;;;;17.27;100.00;99929.53;5001016;28;20053;-78
2023/07/28 02:29:31;;;;;;;5.93;3.50;;;;;;;17.35;100.00;99939.81;4996148;28;20137;-77
2023/07/28 02:31:58;;;;;;;4.55;3.85;;;;;;;17.32;100.00;99942.91;5000153;28;20050;-76
2023/07/28 02:34:24;;;;;;;5.93;3.30;;;;;;;17.30;100.00;99936.22;4994131;28;20050;-76
2023/07/28 02:36:52;;;;;;;4.35;3.50;;;;;;;17.39;100.00;99943.66;5028357;23;20121;-80
2023/07/28 02:39:20;;;;;;;5.57;3.40;;;;;;;17.40;100.00;99941.81;5010114;28;20050;-79
2023/07/28 02:41:47;;;;;;;4.40;3.17;;;;;;;17.37;100.00;99943.06;5010748;28;20389;-77
2023/07/28 02:44:13;;;;;;;4.10;3.47;;;;;;;17.39;100.00;99943.66;5005934;28;20046;-76
2023/07/28 02:46:40;;;;;;;6.60;3.50;;;;;;;17.39;100.00;99935.72;5014369;28;20045;-75
2023/07/28 02:49:06;;;;;;;5.47;3.35;;;;;;;17.36;100.00;99946.72;5011382;28;20045;-76
2023/07/28 02:51:34;;;;;;;4.53;3.42;;;;;;;17.38;100.00;99946.53;5003039;28;20046;-78
2023/07/28 02:54:03;;;;;;;4.63;3.38;;;;;;;17.43;100.00;99947.50;5008315;28;20073;-78
2023/07/28 02:56:34;;;;;;;5.38;3.60;;;;;;;17.42;100.00;99945.88;5010102;28;20068;-78
2023/07/28 02:59:00;;;;;;;4.13;3.47;;;;;;;17.44;100.00;99949.09;5013525;28;20077;-78
2023/07/28 03:01:28;;;;;;;5.63;3.67;;;;;;;17.42;100.00;99951.16;5007730;28;20080;-76
2023/07/28 03:03:54;;;;;;;4.78;3.65;;;;;;;17.41;100.00;99954.84;5013635;28;20049;-78
2023/07/28 03:06:21;;;;;;;4.07;3.60;;;;;;;17.39;100.00;99956.06;5013689;28;20049;-78
2023/07/28 03:08:47;;;;;;;6.13;3.90;;;;;;;17.39;100.00;99956.88;5013491;28;20045;-78
2023/07/28 03:11:15;;;;;;;8.27;3.85;;;;;;;17.39;100.00;99954.25;5007573;28;20042;-77
2023/07/28 03:13:42;;;;;;;7.53;4.30;;;;;;;17.46;100.00;99957.63;5013415;28;20435;-77
2023/07/28 03:16:09;;;;;;;5.50;3.92;;;;;;;17.47;100.00;99953.16;5004123;28;20424;-78
2023/07/28 03:18:36;;;;;;;6.95;4.13;;;;;;;17.47;100.00;99953.97;5008333;28;20056;-78
2023/07/28 03:21:03;;;;;;;6.50;4.30;;;;;;;17.46;100.00;99957.63;5006985;28;20062;-78
2023/07/28 03:23:29;;;;;;;7.13;4.20;;;;;;;17.43;100.00;99958.06;5005278;28;20141;-78
2023/07/28 03:25:56;;;;;;;7.57;4.30;;;;;;;17.45;100.00;99953.38;5009585;28;20093;-78
2023/07/28 03:28:24;;;;;;;6.43;4.13;;;;;;;17.44;100.00;99953.59;5008849;28;20435;-77
2023/07/28 03:30:50;;;;;;;5.00;4.30;;;;;;;17.46;100.00;99955.00;4996082;28;20054;-76
2023/07/28 03:33:17;;;;;;;9.20;4.68;;;;;;;17.44;100.00;99958.88;4997694;28;20137;-77
2023/07/28 03:35:44;;;;;;;8.25;4.30;;;;;;;17.46;100.00;99967.41;5012727;28;20054;-78
2023/07/28 03:38:10;;;;;;;6.40;4.43;;;;;;;17.44;100.00;99949.09;5008776;28;20082;-78
2023/07/28 03:40:37;;;;;;;8.13;4.30;;;;;;;17.48;100.00;99958.22;5006744;28;20427;-77
2023/07/28 03:43:04;;;;;;;5.22;4.45;;;;;;;17.47;100.00;99956.63;5001482;28;20056;-78
2023/07/28 03:45:32;;;;;;;5.35;4.22;;;;;;;17.45;100.00;99965.78;5004596;28;20133;-78
2023/07/28 03:47:58;;;;;;;5.72;4.00;;;;;;;17.44;100.00;99964.16;5009248;28;20132;-77
2023/07/28 03:50:26;;;;;;;4.85;4.32;;;;;;;17.46;100.00;99965.56;5011830;28;20046;-78
2023/07/28 03:52:52;;;;;;;5.88;4.70;;;;;;;17.45;100.00;99971.88;5010665;28;20049;-79
2023/07/28 03:55:19;;;;;;;8.95;5.00;;;;;;;17.44;100.00;99964.97;4993759;28;20116;-78
2023/07/28 03:57:46;;;;;;;6.22;4.80;;;;;;;17.45;100.00;99960.50;5000621;28;20052;-78
2023/07/28 04:00:13;;;;;;;6.00;4.40;;;;;;;17.44;100.00;99962.34;5008166;28;20149;-78
2023/07/28 04:02:41;;;;;;;5.05;4.53;;;;;;;17.47;100.00;99961.91;4999533;28;20042;-77
2023/07/28 04:05:09;;;;;;;9.15;5.10;;;;;;;17.47;100.00;99964.53;5010294;28;20050;-78
2023/07/28 04:07:35;;;;;;;8.48;4.90;;;;;;;17.47;100.00;99959.25;5005672;28;20096;-78
2023/07/28 04:10:02;;;;;;;7.15;4.75;;;;;;;17.48;100.00;99965.34;5010268;28;20081;-79
2023/07/28 04:12:29;;;;;;;6.63;4.50;;;;;;;17.49;100.00;99959.00;5002292;28;20144;-78
2023/07/28 04:14:55;;;;;;;5.00;4.32;;;;;;;17.44;100.00;99964.16;5007691;28;20128;-79
2023/07/28 04:17:22;;;;;;;6.18;3.70;;;;;;;17.50;100.00;99955.34;5005331;28;20136;-79
2023/07/28 04:19:50;;;;;;;4.47;4.03;;;;;;;17.52;100.00;99956.75;5010741;28;20080;-77
2023/07/28 04:22:21;;;;;;;6.45;3.63;;;;;;;17.49;100.00;99961.66;5003128;28;20096;-79
2023/07/28 04:24:47;;;;;;;7.32;3.95;;;;;;;17.46;100.00;99960.28;5004489;28;20050;-79
2023/07/28 04:27:14;;;;;;;7.70;3.97;;;;;;;17.49;100.00;99962.47;4999924;28;20137;-78
2023/07/28 04:29:41;;;;;;;6.03;3.90;;;;;;;17.47;100.00;99972.47;5000144;28;20050;-78
2023/07/28 04:32:08;;;;;;;5.03;4.28;;;;;;;17.57;100.00;99972.78;5000787;28;20132;-78
2023/07/28 04:34:35;;;;;;;6.00;4.35;;;;;;;17.56;100.00;99973.81;5005401;28;20125;-80
2023/07/28 04:37:03;;;;;;;4.95;4.28;;;;;;;17.53;100.00;99971.59;5002126;28;20082;-77
2023/07/28 04:39:30;;;;;;;4.60;4.20;;;;;;;17.54;100.00;99965.28;5010270;28;20148;-77
2023/07/28 04:41:56;;;;;;;5.32;4.13;;;;;;;17.58;100.00;99977.03;5005153;28;20049;-78
2023/07/28 04:44:23;;;;;;;4.63;4.20;;;;;;;17.57;100.00;99978.06;4996589;28;20042;-79
2023/07/28 04:46:50;;;;;;;6.35;4.95;;;;;;;17.53;100.00;99976.88;5004740;28;20467;-79
2023/07/28 04:49:17;;;;;;;5.90;4.28;;;;;;;17.62;100.00;99985.34;5009396;28;20058;-80
2023/07/28 04:51:44;;;;;;;7.57;4.47;;;;;;;17.69;100.00;99980.84;5009239;28;20129;-80
2023/07/28 04:54:12;;;;;;;5.20;4.60;;;;;;;17.63;100.00;99983.53;5009342;28;20058;-80
2023/07/28 04:56:38;;;;;;;5.90;5.30;;;;;;;17.67;100.00;99996.13;5007073;28;20070;-81
2023/07/28 04:59:06;;;;;;;5.18;4.60;;;;;;;17.64;100.00;99985.94;5000928;28;20056;-78
2023/07/28 05:01:33;;;;;;;7.20;4.55;;;;;;;17.63;100.00;99988.81;4992330;28;20501;-78
2023/07/28 05:04:03;;;;;;;6.75;5.10;;;;;;;17.61;100.00;99986.38;4993561;28;20051;-79
2023/07/28 05:06:30;;;;;;;5.95;4.65;;;;;;;17.59;100.00;99997.19;4995936;28;20120;-79
2023/07/28 05:08:56;;;;;;;5.65;4.75;;;;;;;17.62;100.00;99992.47;4995947;28;20046;-80
2023/07/28 05:11:24;;;;;;;5.25;4.75;;;;;;;17.64;100.00;100001.00;4995344;28;20309;-80
2023/07/28 05:13:51;;;;;;;6.32;4.78;;;;;;;17.65;100.00;99997.34;4995608;28;20093;-79
2023/07/28 05:16:18;;;;;;;8.57;4.90;;;;;;;17.69;100.00;99994.06;4991270;28;20121;-79
2023/07/28 05:18:45;;;;;;;7.70;4.82;;;;;;;17.68;100.00;99999.59;4992158;28;20054;-77
2023/07/28 05:21:11;;;;;;;5.55;4.53;;;;;;;17.70;100.00;100008.13;4990809;28;20050;-78
2023/07/28 05:23:38;;;;;;;6.22;5.10;;;;;;;17.76;100.00;100005.41;4992638;28;20157;-78
2023/07/28 05:26:05;;;;;;;8.02;4.82;;;;;;;17.78;100.00;100013.94;5006736;28;20050;-80
2023/07/28 05:28:36;;;;;;;8.18;5.18;;;;;;;17.79;100.00;100014.75;5009150;28;20050;-79
2023/07/28 05:31:05;;;;;;;6.93;4.50;;;;;;;17.83;100.00;100006.16;4995762;28;20078;-79
2023/07/28 05:33:32;;;;;;;7.10;3.80;;;;;;;17.87;100.00;100010.00;4995899;28;20495;-79
2023/07/28 05:36:03;;;;;;;5.35;4.00;;;;;;;17.87;100.00;100014.47;4995559;28;20146;-77
2023/07/28 05:38:30;;;;;;;6.22;4.30;;;;;;;17.86;100.00;100020.78;4991572;28;20117;-79
2023/07/28 05:40:58;;;;;;;3.67;3.35;;;;;;;17.87;100.00;100017.94;4996211;28;20061;-79
2023/07/28 05:43:25;;;;;;;4.72;3.30;;;;;;;17.88;100.00;100018.75;4994380;28;20058;-78
2023/07/28 05:45:53;;;;;;;5.78;2.83;;;;;;;17.85;100.00;100024.47;4994618;28;20096;-78
2023/07/28 05:48:19;;;;;;;2.92;2.60;;;;;;;17.88;100.00;100030.13;4994852;28;20134;-77
2023/07/28 05:50:46;;;;;;;5.90;3.10;;;;;;;17.91;100.00;100023.59;4986695;28;20137;-79
2023/07/28 05:53:13;;;;;;;3.72;3.00;;;;;;;17.96;100.00;100031.66;4995957;28;20133;-78
2023/07/28 05:55:40;;;;;;;3.13;2.63;;;;;;;17.87;100.00;100025.06;4994659;28;20042;-76
2023/07/28 05:58:07;;;;;;;5.72;2.95;;;;;;;17.94;100.00;100035.59;4986727;28;20113;-78
2023/07/28 06:00:33;;;;;;;2.88;2.67;;;;;;;17.94;100.00;100033.75;4993762;28;20097;-79
2023/07/28 06:03:01;;;;;;;4.55;2.90;;;;;;;17.94;100.00;100031.09;4993526;28;20543;-78
2023/07/28 06:05:28;;;;;;;3.10;2.50;;;;;;;17.95;100.00;100043.31;4996327;28;20050;-78
2023/07/28 06:07:54;;;;;;;2.67;2.45;;;;;;;17.99;100.00;100046.31;4999472;28;20093;-78
2023/07/28 06:10:21;;;;;;;4.50;3.05;;;;;;;17.94;100.00;100038.25;4997261;28;20078;-78
2023/07/28 06:12:47;;;;;;;3.85;2.92;;;;;;;17.98;100.00;100040.19;4996322;28;20569;-77
2023/07/28 06:15:14;;;;;;;3.35;3.05;;;;;;;18.09;100.00;100043.97;4988178;28;20081;-78
2023/07/28 06:17:41;;;;;;;3.65;2.88;;;;;;;18.08;100.00;100045.81;4996018;28;20133;-77
2023/07/28 06:20:10;;;;;;;3.33;2.78;;;;;;;18.12;100.00;100051.47;4987579;28;20450;-76
2023/07/28 06:22:37;;;;;;;3.22;2.90;;;;;;;18.13;100.00;100043.31;4995710;28;20050;-78
2023/07/28 06:25:04;;;;;;;4.35;3.20;;;;;;;18.14;100.00;100046.78;4995660;28;20457;-77
2023/07/28 06:27:31;;;;;;;5.80;3.25;;;;;;;18.16;100.00;100047.38;4994905;28;20133;-78
2023/07/28 06:29:58;;;;;;;3.83;3.47;;;;;;;18.17;100.00;100049.78;4994400;28;20050;-78
2023/07/28 06:32:24;;;;;;;4.07;3.60;;;;;;;18.20;100.00;100059.94;4993548;28;20046;-77
2023/07/28 06:34:51;;;;;;;5.25;3.90;;;;;;;18.21;100.00;100058.94;4987227;28;20147;-78
2023/07/28 06:37:19;;;;;;;4.28;3.60;;;;;;;18.21;100.00;100061.56;4994517;28;20528;-78
2023/07/28 06:39:46;;;;;;;8.63;3.88;;;;;;;18.21;100.00;100050.16;4989134;28;20047;-78
2023/07/28 06:42:13;;;;;;;4.68;3.80;;;;;;;18.25;100.00;100067.25;4995050;28;20069;-78
2023/07/28 06:44:39;;;;;;;5.28;3.70;;;;;;;18.23;100.00;100062.16;4994243;28;20137;-79
2023/07/28 06:47:06;;;;;;;5.32;4.00;;;;;;;18.23;100.00;100070.09;4994459;28;20068;-78
2023/07/28 06:49:33;;;;;;;5.18;4.03;;;;;;;18.34;100.00;100075.72;4987424;28;20054;-78
2023/07/28 06:51:59;;;;;;;7.38;3.90;;;;;;;18.31;100.00;100071.66;4993324;28;20047;-77
2023/07/28 06:54:27;;;;;;;5.63;3.72;;;;;;;18.34;100.00;100073.06;4988344;28;20050;-79
2023/07/28 06:56:54;;;;;;;5.78;3.80;;;;;;;18.46;100.00;100076.56;4995041;28;20484;-78
2023/07/28 06:59:20;;;;;;;7.35;4.28;;;;;;;18.46;100.00;100084.53;4990642;28;20476;-78
2023/07/28 07:01:47;;;;;;;5.70;3.90;;;;;;;18.44;100.00;100081.28;4990866;28;20397;-79
2023/07/28 07:04:14;;;;;;;6.35;3.90;;;;;;;18.47;100.00;100091.44;4994638;28;20141;-78
2023/07/28 07:06:41;;;;;;;4.97;4.30;;;;;;;18.51;100.00;100082.03;4994036;28;20102;-78
2023/07/28 07:09:08;;;;;;;7.18;4.40;;;;;;;18.51;100.00;100098.72;4986175;28;20047;-79
2023/07/28 07:11:36;;;;;;;5.07;4.10;;;;;;;18.48;100.00;100098.34;4994136;28;20061;-77
2023/07/28 07:14:04;;;;;;;5.70;4.35;;;;;;;18.57;100.00;100094.38;4986004;28;20154;-78
2023/07/28 07:16:32;;;;;;;6.70;4.45;;;;;;;18.59;100.00;100092.34;4993666;28;20480;-78
2023/07/28 07:18:59;;;;;;;7.50;4.47;;;;;;;18.57;100.00;100107.63;4993123;28;20072;-78
2023/07/28 07:21:26;;;;;;;6.13;4.57;;;;;;;18.61;100.00;100097.44;4993352;28;20054;-77
2023/07/28 07:23:52;;;;;;;5.82;4.68;;;;;;;18.66;100.00;100101.06;4994022;28;20058;-78
2023/07/28 07:26:19;;;;;;;6.65;5.00;;;;;;;18.64;100.00;100097.81;4993504;28;20434;-77
2023/07/28 07:28:47;;;;;;;8.98;5.10;;;;;;;18.69;100.00;100105.91;4993428;28;20129;-77
2023/07/28 07:31:14;;;;;;;9.00;6.47;;;;;;;18.68;100.00;100090.22;4993228;28;20050;-78
2023/07/28 07:33:41;;;;;;;8.70;5.80;;;;;;;18.80;100.00;100107.81;4993651;28;20125;-77
2023/07/28 07:36:13;;;;;;;5.97;4.78;;;;;;;18.77;100.00;100108.25;4993312;28;20062;-77
2023/07/28 07:38:40;;;;;;;8.00;5.70;;;;;;;18.79;100.00;100100.91;4994028;28;20140;-78
2023/07/28 07:41:07;;;;;;;7.43;4.85;;;;;;;18.87;100.00;100107.75;4985189;28;20051;-78
2023/07/28 07:43:34;;;;;;;7.75;5.25;;;;;;;18.84;100.00;100113.50;4994507;28;20046;-79
2023/07/28 07:46:02;;;;;;;5.50;4.70;;;;;;;18.77;100.00;100102.97;4992730;28;20066;-78
2023/07/28 07:48:29;;;;;;;6.93;5.07;;;;;;;18.79;100.00;100116.81;4989592;28;20487;-78
2023/07/28 07:50:55;;;;;;;8.30;4.85;;;;;;;18.90;100.00;100118.69;5014380;28;20059;-78
2023/07/28 07:53:22;;;;;;;7.53;5.20;;;;;;;19.00;100.00;100112.06;5031966;28;20049;-77
2023/07/28 07:55:50;;;;;;;9.00;5.18;;;;;;;19.06;100.00;100117.28;5032278;28;20048;-79
2023/07/28 07:58:16;;;;;;;6.78;5.18;;;;;;;18.95;100.00;100125.16;5031974;28;20053;-80
2023/07/28 08:00:43;;;;;;;5.45;4.90;;;;;;;18.95;100.00;100114.56;5032892;28;20474;-80
2023/07/28 08:03:12;;;;;;;5.47;4.80;;;;;;;19.08;100.00;100119.69;5031120;28;20045;-79
2023/07/28 08:05:38;;;;;;;7.38;5.07;;;;;;;19.27;100.00;100117.84;5032369;28;20054;-79
2023/07/28 08:08:07;;;;;;;6.20;5.32;;;;;;;19.49;100.00;100121.56;5023881;28;20132;-78
2023/07/28 08:10:34;;;;;;;6.57;4.72;;;;;;;19.67;100.00;100128.69;5031402;28;20151;-77
2023/07/28 08:13:00;;;;;;;6.55;4.70;;;;;;;19.75;100.00;100131.84;5032687;28;20132;-78
2023/07/28 08:15:27;;;;;;;6.65;4.57;;;;;;;19.89;100.00;100145.69;5031395;28;20128;-78
2023/07/28 08:17:54;;;;;;;6.53;4.88;;;;;;;20.15;100.00;100147.94;5030991;28;20597;-77
2023/07/28 08:20:22;;;;;;;6.05;4.53;;;;;;;20.48;100.00;100149.22;5032381;28;20104;-79
2023/07/28 08:22:48;;;;;;;6.93;4.50;;;;;;;20.39;100.00;100155.91;5032104;28;20045;-79
2023/07/28 08:25:15;;;;;;;5.22;4.25;;;;;;;20.46;100.00;100159.28;5032394;28;20057;-77
2023/07/28 08:27:44;;;;;;;5.32;4.30;;;;;;;20.50;100.00;100160.44;5033013;28;20116;-78
2023/07/28 08:30:12;;;;;;;7.03;4.45;;;;;;;20.55;100.00;100168.53;5028965;28;20114;-79
2023/07/28 08:32:39;;;;;;;7.10;3.88;;;;;;;20.50;100.00;100166.56;5035685;28;20480;-77
2023/07/28 08:35:06;;;;;;;6.65;4.10;;;;;;;20.86;100.00;100176.09;5036920;28;20136;-79
2023/07/28 08:37:34;;;;;;;5.35;4.32;;;;;;;21.25;100.00;100167.59;5046159;28;20447;-80
2023/07/28 08:40:01;;;;;;;6.85;4.10;;;;;;;21.12;100.00;100171.31;5051165;23;20115;-81
2023/07/28 08:42:33;;;;;;;6.03;4.00;;;;;;;21.30;100.00;100168.47;5020619;28;20423;-80
2023/07/28 08:45:00;;;;;;;6.70;3.70;;;;;;;21.66;100.00;100137.19;5022163;28;20042;-83
2023/07/28 08:50:21;;;;;;;7.90;3.90;;;;;;;22.25;100.00;100132.25;5021958;28;20116;-85
2023/07/28 08:53:09;;;;;;;6.43;3.10;;;;;;;22.63;100.00;100116.28;5025719;28;20092;-85
2023/07/28 08:55:42;;;;;;;4.28;3.33;;;;;;;23.90;96.88;100114.94;5018494;28;20046;-84
2023/07/28 08:58:17;;;;;;;6.00;3.13;;;;;;;23.83;93.25;100115.13;5007389;28;20129;-85
2023/07/28 09:00:44;;;;;;;5.72;3.05;;;;;;;24.09;92.15;100110.00;5008903;28;20046;-83
2023/07/28 09:03:11;;;;;;;3.85;2.47;;;;;;;23.63;91.36;100116.84;5017190;28;20046;-84
2023/07/28 09:05:40;;;;;;;4.05;2.30;;;;;;;24.28;89.87;100115.72;5017133;28;20126;-82
2023/07/28 09:08:09;;;;;;;2.97;2.65;;;;;;;24.25;88.06;100103.69;5020789;28;20046;-83
2023/07/28 09:10:42;;;;;;;3.00;2.65;;;;;;;24.54;88.16;100120.16;5023743;28;20088;-81
2023/07/28 09:13:10;;;;;;;4.38;3.03;;;;;;;24.45;88.85;100127.88;5023133;28;20137;-83
2023/07/28 09:15:49;;;;;;;5.05;2.75;;;;;;;24.32;89.30;100128.31;5017131;28;20046;-82
2023/07/28 09:24:20;;;;;;;2.70;2.50;;;;;;;23.56;90.83;100124.28;5012989;28;20516;-83
2023/07/28 09:26:55;;;;;;;5.47;2.83;;;;;;;22.98;92.73;100112.44;5005385;28;20046;-83
2023/07/28 09:29:41;;;;;;;2.85;2.40;;;;;;;22.67;94.09;100133.41;5007476;28;20081;-82
2023/07/28 09:32:09;;;;;;;3.33;2.55;;;;;;;22.59;95.42;100123.16;5021166;28;20052;-81
2023/07/28 09:34:36;;;;;;;2.15;2.03;;;;;;;22.47;95.82;100128.59;5018052;28;20049;-79
2023/07/28 09:44:11;;;;;;;4.50;2.88;;;;;;;22.10;97.39;100128.34;5014101;28;20061;-82
2023/07/28 09:46:53;;;;;;;5.15;3.20;;;;;;;22.50;96.37;100127.28;5023623;28;20170;-81
2023/07/28 09:49:23;;;;;;;5.78;2.85;;;;;;;22.88;94.68;100115.00;5014850;28;20403;-81
2023/07/28 09:51:58;;;;;;;2.67;2.42;;;;;;;23.30;93.09;100085.81;5030114;28;20049;-82
2023/07/28 09:57:27;;;;;;;3.85;2.45;;;;;;;23.84;89.11;100097.25;5008081;28;20050;-82
2023/07/28 10:00:03;;;;;;;5.90;2.38;;;;;;;23.55;88.34;100093.28;5015591;28;20466;-82
2023/07/28 10:02:35;;;;;;;2.75;2.28;;;;;;;23.90;86.70;100088.22;5025461;28;20147;-83
2023/07/28 10:05:32;;;;;;;2.95;1.85;;;;;;;24.63;86.68;100101.72;5024704;28;20117;-83
2023/07/28 10:08:02;;;;;;;3.83;1.92;;;;;;;25.03;85.15;100101.09;5018942;28;20425;-81
2023/07/28 10:10:54;;;;;;;;;;;;;;;;;;;;;
2023/07/28 10:13:59;;;;;;;2.05;1.88;;;;;;;24.53;85.15;100105.19;5016591;28;20041;-82
2023/07/28 10:17:24;;;;;;;2.80;1.80;;;;;;;24.30;85.11;100086.88;5020925;28;20424;-81
2023/07/28 10:31:30;;;;;;;1.90;1.80;;;;;;;22.99;91.52;100132.72;4988495;28;20481;-82
2023/07/28 10:44:17;;;;;;;1.73;1.63;;;;;;;24.81;83.60;100098.59;5030134;28;20115;-82
2023/07/28 10:50:26;;;;;;;;;;;;;;;;;;;;;
2023/07/28 10:53:46;;;;;;;1.75;1.63;;;;;;;23.99;84.38;100086.66;5038280;28;20124;-83
2023/07/28 10:59:25;;;;;;;3.17;1.67;;;;;;;24.21;84.98;100104.44;4998923;28;20049;-81
2023/07/28 11:02:59;;;;;;;;;;;;;;;;;;;;;
2023/07/28 11:05:54;;;;;;;2.20;2.00;;;;;;;23.97;86.08;100120.06;4972288;28;20049;-80
2023/07/28 11:08:27;;;;;;;4.45;2.10;;;;;;;23.99;86.94;100110.72;5050262;28;20080;-81
2023/07/28 11:14:41;;;;;;;1.95;1.70;;;;;;;24.16;86.07;100100.66;5048278;28;20446;-81
2023/07/28 11:23:35;;;;;;;2.92;2.70;;;;;;;24.53;84.47;100115.06;5042886;28;20059;-84
2023/07/28 11:26:19;;;;;;;1.75;1.65;;;;;;;24.39;85.47;100112.06;5049762;28;20061;-82
2023/07/28 11:28:46;;;;;;;1.60;1.50;;;;;;;24.52;84.84;100108.13;5050234;28;20462;-85
2023/07/28 11:31:13;;;;;;;2.47;2.05;;;;;;;24.73;85.30;100112.47;5054538;28;20124;-81
2023/07/28 11:33:42;;;;;;;2.20;1.98;;;;;;;24.84;84.56;100110.66;5047868;28;20105;-80
2023/07/28 11:36:09;;;;;;;1.50;1.40;;;;;;;24.26;83.24;100099.16;5048352;28;20144;-83
2023/07/28 11:38:37;;;;;;;3.25;1.50;;;;;;;24.46;83.33;100099.25;5046952;28;20080;-81
2023/07/28 11:41:04;;;;;;;1.42;1.33;;;;;;;25.00;81.49;100085.56;5049433;28;20110;-81
2023/07/28 11:43:31;;;;;;;2.25;1.50;;;;;;;25.39;79.64;100088.56;5050154;28;20049;-80
2023/07/28 11:45:58;;;;;;;2.95;2.20;;;;;;;25.16;80.11;100089.88;5046833;28;20547;-85
2023/07/28 11:48:30;;;;;;;2.25;1.80;;;;;;;25.21;79.25;100095.25;5051125;28;20045;-82
2023/07/28 11:50:58;;;;;;;1.85;1.33;;;;;;;24.81;79.53;100082.53;5047330;28;20080;-79
2023/07/28 11:53:26;;;;;;;2.10;1.48;;;;;;;24.56;80.72;100085.94;5046848;28;20127;-80
2023/07/28 11:55:53;;;;;;;2.38;1.60;;;;;;;25.15;79.84;100082.91;5053238;28;20079;-77
2023/07/28 11:58:23;;;;;;;2.50;1.35;;;;;;;25.16;78.98;100081.84;5043743;28;20080;-77
2023/07/28 12:00:50;;;;;;;3.85;1.55;;;;;;;25.06;78.28;100079.94;5041495;28;20090;-79
2023/07/28 12:03:16;;;;;;;2.30;1.42;;;;;;;25.02;78.87;100084.25;5053856;28;20044;-78
2023/07/28 12:06:09;;;;;;;9.05;2.20;;;;;;;24.95;79.78;100085.53;5054728;28;20116;-78
2023/07/28 12:08:37;;;;;;;1.83;1.70;;;;;;;24.99;79.85;100086.66;5055732;28;20128;-82
2023/07/28 12:11:04;;;;;;;4.15;1.67;;;;;;;25.47;79.77;100085.38;5059673;28;20048;-80
2023/07/28 12:13:31;;;;;;;2.88;1.88;;;;;;;25.30;79.25;100079.47;5054649;28;20363;-81
2023/07/28 12:15:58;;;;;;;3.63;2.00;;;;;;;25.58;78.76;100078.13;5056693;28;20077;-82
2023/07/28 12:18:30;;;;;;;2.28;1.98;;;;;;;25.58;78.19;100078.91;5057221;28;20113;-80
2023/07/28 12:20:57;;;;;;;3.00;2.05;;;;;;;25.40;77.34;100076.78;5060374;28;20136;-79
2023/07/28 12:23:25;;;;;;;2.33;1.88;;;;;;;25.44;76.74;100069.84;5054555;28;20116;-78
2023/07/28 12:25:53;;;;;;;3.08;2.00;;;;;;;25.40;77.35;100074.13;5057497;28;20044;-81
2023/07/28 12:28:20;;;;;;;3.15;2.80;;;;;;;25.53;76.88;100084.28;5058883;28;20049;-80
2023/07/28 12:30:48;;;;;;;2.78;2.28;;;;;;;25.40;77.75;100077.59;5051419;28;20049;-81
2023/07/28 12:33:15;;;;;;;2.15;1.95;;;;;;;25.30;77.92;100087.50;5051958;28;20072;-80